Flight Track Log - Related Links

Times and Time Zones

All times are in EDT time to prevent confusion due to time zone crossing. See the EGF3289 flight status page for this flight to view local times or setup timezone preferences in your user account.

Time Position Orientation Groundspeed Altitude Reporting Facility
EDT Latitude Longitude Course Direction KTS MPH feet Rate Location/Type
Sat 08:55:32 AM 32.8355 -97.0333 342° North  Level FlightAware Approximate
Sat 08:56:14 AM 32.8808 -97.0508 181° South 160 184 1,300  Level FAA TRACON SMA TRACON (SMA)
Sat 09:00:15 AM 32.6311 -97.0547 164° South 276 318 7,800 1,634 Climbing FAA TRACON SMA TRACON (SMA)
Sat 09:00:53 AM 32.5786 -97.0364 146° Southeast 293 337 8,900 1,500 Climbing FAA TRACON SMA TRACON (SMA)
Sat 09:01:55 AM 32.5086 -96.9814 147° Southeast 306 352 10,300 1,366 Climbing FAA TRACON SMA TRACON (SMA)
Sat 09:02:34 AM 32.4564 -96.9417 148° Southeast 321 369 11,200 1,291 Climbing FAA TRACON SMA TRACON (SMA)
Sat 09:03:14 AM 32.4086 -96.9058 148° Southeast 332 382 12,000 1,333 Climbing FAA TRACON SMA TRACON (SMA)
Sat 09:03:55 AM 32.3531 -96.8644 148° Southeast 340 391 13,000 1,425 Climbing FAA TRACON SMA TRACON (SMA)
Sat 09:04:34 AM 32.2972 -96.8228 156° South 343 395 13,900 1,385 Climbing FAA TRACON SMA TRACON (SMA)
Sat 09:05:13 AM 32.2431 -96.7939 163° South 349 402 14,800 1,425 Climbing FAA TRACON SMA TRACON (SMA)
Sat 09:05:54 AM 32.1783 -96.7703 163° South 351 404 15,800 1,556 Climbing FAA TRACON SMA TRACON (SMA)
Sat 09:06:34 AM 32.1133 -96.7467 160° South 353 406 16,900 1,481 Climbing FAA TRACON SMA TRACON (SMA)
Sat 09:07:15 AM 32.0561 -96.7222 164° South 355 409 17,800 1,500 Climbing FAA TRACON SMA TRACON (SMA)
Sat 09:07:54 AM 31.9903 -96.6997 163° South 355 409 18,900 1,424 Climbing FAA TRACON SMA TRACON (SMA)
Sat 09:09:34 AM 31.8436 -96.6478 162° South 359 413 21,100 1,350 Climbing Fort Worth Center
Sat 09:10:34 AM 31.7453 -96.6097 159° South 365 420 22,500 1,350 Climbing Fort Worth Center
Sat 09:11:34 AM 31.6489 -96.5667 161° South 371 427 23,800 1,269 Climbing Fort Worth Center
Sat 09:12:18 AM 31.5686 -96.5350 162° South 370 426 24,700 808 Climbing Houston Center
Sat 09:13:18 AM 31.4739 -96.4986 163° South 380 437 25,200 800 Climbing Houston Center
Sat 09:14:18 AM 31.3711 -96.4619 161° South 390 449 26,300 908 Climbing Houston Center
Sat 09:15:17 AM 31.2619 -96.4178 162° South 397 457 27,000 350 Climbing Houston Center
Sat 09:16:18 AM 31.1489 -96.3736 163° South 417 480 27,000 50 Level Houston Center
Sat 09:17:18 AM 31.0294 -96.3317 163° South 442 509 27,100 500 Climbing Houston Center
Sat 09:18:18 AM 30.8975 -96.2844 139° Southeast 452 520 28,000 1,150 Climbing Houston Center
Sat 09:19:18 AM 30.8067 -96.1933 104° East 431 496 29,400 1,500 Climbing Houston Center
Sat 09:20:18 AM 30.7778 -96.0617 105° East 404 465 31,000 1,412 Climbing Houston Center
Sat 09:21:17 AM 30.7483 -95.9322 103° East 404 465 32,200 1,210 Climbing Houston Center
Sat 09:22:17 AM 30.7214 -95.7983 104° East 410 472 33,400 1,091 Climbing Houston Center
Sat 09:23:18 AM 30.6939 -95.6692 102° East 410 472 34,400 893 Climbing Houston Center
Sat 09:24:18 AM 30.6722 -95.5550 104° East 410 472 35,200 756 Climbing Houston Center
Sat 09:25:17 AM 30.6408 -95.4067 104° East 410 472 35,900 655 Climbing Houston Center
Sat 09:26:17 AM 30.6131 -95.2778 104° East 415 478 36,500 550 Climbing Houston Center
Sat 09:27:17 AM 30.5853 -95.1442 104° East 420 483 37,000 248 Climbing Houston Center
Sat 09:28:18 AM 30.5553 -95.0081 104° East 420 483 37,000  Level Houston Center
Sat 09:29:17 AM 30.5256 -94.8647 103° East 431 496 37,000  Level Houston Center
Sat 09:30:17 AM 30.4956 -94.7194 104° East 449 517 37,000  Level Houston Center
Sat 09:31:17 AM 30.4633 -94.5667 104° East 462 532 37,000  Level Houston Center
Sat 09:32:18 AM 30.4367 -94.4431 104° East 462 532 37,000  Level Houston Center
Sat 09:33:18 AM 30.4061 -94.3000 105° East 451 519 37,000  Level Houston Center
Sat 09:34:18 AM 30.3736 -94.1550 104° East 451 519 37,000  Level Houston Center
Sat 09:35:18 AM 30.3386 -93.9953 105° East 462 532 37,000  Level Houston Center
Sat 09:36:18 AM 30.3056 -93.8500 105° East 468 539 37,000  Level Houston Center
Sat 09:37:18 AM 30.2703 -93.7028 104° East 468 539 37,000  Level Houston Center
Sat 09:38:17 AM 30.2372 -93.5506 105° East 474 545 37,000  Level Houston Center
Sat 09:39:18 AM 30.2017 -93.3961 103° East 485 558 37,000  Level Houston Center
Sat 09:40:18 AM 30.1722 -93.2492 102° East 485 558 37,000  Level Houston Center
Sat 09:41:18 AM 30.1444 -93.0972 83° East 474 545 37,000  Level Houston Center
Sat 09:42:18 AM 30.1608 -92.9439 80° East 469 540 37,000  Level Houston Center
Sat 09:43:18 AM 30.1831 -92.7928 82° East 469 540 37,000  Level Houston Center
Sat 09:44:18 AM 30.2008 -92.6439 80° East 469 540 37,000 -50 Level Houston Center
Sat 09:45:17 AM 30.2228 -92.4928 81° East 469 540 36,900  Descending Houston Center
Sat 09:46:17 AM 30.2422 -92.3439 83° East 469 540 37,000 50 Climbing Houston Center
Sat 09:47:18 AM 30.2575 -92.1925 81° East 464 534 37,000  Level Houston Center
Sat 09:48:18 AM 30.2769 -92.0433 81° East 469 540 37,000 -200 Level Houston Center
Sat 09:49:18 AM 30.2961 -91.8944 82° East 469 540 36,600 -605 Descending Houston Center
Sat 09:50:17 AM 30.3150 -91.7453 80° East 469 540 35,800 -807 Descending Houston Center
Sat 09:51:17 AM 30.3381 -91.5936 83° East 469 540 35,000 -397 Descending Houston Center
Sat 09:52:18 AM 30.3544 -91.4419 81° East 469 540 35,000  Level Houston Center
Sat 09:53:18 AM 30.3750 -91.2928 83° East 464 534 35,000  Level Houston Center
Sat 09:54:18 AM 30.3914 -91.1433 83° East 464 534 35,000  Level Houston Center
Sat 09:55:18 AM 30.4072 -90.9964 81° East 464 534 35,000  Level Houston Center
Sat 09:56:18 AM 30.4275 -90.8494 83° East 464 534 35,000  Level Houston Center
Sat 09:57:18 AM 30.4431 -90.7022 83° East 464 534 35,000 -50 Level Houston Center
Sat 09:58:18 AM 30.4586 -90.5528 89° East 464 534 34,900 -400 Descending Houston Center
Sat 09:59:18 AM 30.4617 -90.4011 89° East 464 534 34,200 -1,000 Descending Houston Center
Sat 10:00:18 AM 30.4642 -90.2467 89° East 464 534 32,900 -1,350 Descending Houston Center
Sat 10:01:18 AM 30.4667 -90.0903 89° East 470 541 31,500 -1,400 Descending Houston Center
Sat 10:02:18 AM 30.4689 -89.9358 87° East 475 547 30,100 -1,450 Descending Houston Center
Sat 10:03:18 AM 30.4753 -89.7839 91° East 475 547 28,600 -1,350 Descending Houston Center
Sat 10:04:18 AM 30.4736 -89.6611 89° East 475 547 27,400 -1,300 Descending Houston Center
Sat 10:05:18 AM 30.4750 -89.4950 90° East 475 547 26,000 -1,450 Descending Houston Center
Sat 10:06:18 AM 30.4747 -89.3406 90° East 475 547 24,500 -1,462 Descending Houston Center
Sat 10:07:17 AM 30.4742 -89.1961 89° East 470 541 23,100 -1,462 Descending Houston Center
Sat 10:08:17 AM 30.4756 -89.0514 91° East 458 527 21,600 -1,438 Descending Houston Center
Sat 10:09:18 AM 30.4728 -88.9119 89° East 443 510 20,200 -1,438 Descending Houston Center
Sat 10:10:18 AM 30.4742 -88.7744 89° East 431 496 18,700 -1,350 Descending Houston Center
Sat 10:11:18 AM 30.4756 -88.6444 90° East 417 480 17,500 -1,400 Descending Houston Center
Sat 10:12:18 AM 30.4747 -88.5217 88° East 392 451 15,900 -1,550 Descending Houston Center
Sat 10:13:18 AM 30.4781 -88.3961 90° East 381 438 14,400 -1,500 Descending Houston Center
Sat 10:14:18 AM 30.4772 -88.2781 90° East 381 438 12,900 -1,005 Descending Houston Center
Sat 10:16:41 AM 30.4764 -88.0236 90° East 307 353 11,000 -559 Descending Jacksonville Center
Sat 10:17:42 AM 30.4761 -87.9247 80° East 295 339 11,000 -283 Level Jacksonville Center
Sat 10:18:48 AM 30.4928 -87.8194 68° East 287 330 10,400 -496 Descending Jacksonville Center
Sat 10:19:43 AM 30.5186 -87.7461 73° East 276 318 10,000 -879 Descending Jacksonville Center
Sat 10:20:44 AM 30.5403 -87.6653 78° East 270 311 8,700 -1,686 Descending Jacksonville Center
Sat 10:21:44 AM 30.5561 -87.5769 81° East 268 308 6,600 -1,934 Descending Jacksonville Center
Sat 10:22:45 AM 30.5678 -87.4906 81° East 266 306 4,800 -1,686 Descending Jacksonville Center
Sat 10:23:45 AM 30.5789 -87.4117 78° East 257 296 3,200 -1,488 Descending Jacksonville Center
Sat 10:24:46 AM 30.5942 -87.3278 80° East 248 285 1,800 -744 Descending Jacksonville Center
Sat 10:25:46 AM 30.6053 -87.2536 147° Southeast 229 264 1,700 -94 Descending Jacksonville Center
Sat 10:26:53 AM 30.5544 -87.2150 147° Southeast 203 234 1,600 -90 Descending Jacksonville Center

Login

Don't have an account? Register now (free) for customized features, flight alerts, and more!